Time;durP1;ratioP1;P1;durP2;ratioP2;P2;SDS_P1;SDS_P2;PMS_P1;PMS_P2;Temp;Humidity;BMP_temperature;BMP_pressure;BME280_temperature;BME280_humidity;BME280_pressure;Samples;Min_cycle;Max_cycle;Signal;HPM_P1;HPM_P2
2023/07/07 00:02:43;;;;;;;7.38;4.00;;;13.80;1.00;;;;;;6273564;22;20015;-89
2023/07/07 00:05:30;;;;;;;6.47;3.47;;;13.80;1.00;;;;;;6274308;22;20011;-88
2023/07/07 00:08:18;;;;;;;8.40;4.20;;;13.70;1.00;;;;;;6248004;23;20027;-91
2023/07/07 00:11:05;;;;;;;9.57;3.90;;;13.70;1.00;;;;;;6245829;23;20442;-90
2023/07/07 00:13:55;;;;;;;6.35;3.33;;;13.60;1.00;;;;;;6245837;23;20040;-90
2023/07/07 00:16:43;;;;;;;6.03;3.42;;;13.60;1.00;;;;;;6243630;23;20020;-90
2023/07/07 00:19:36;;;;;;;5.35;3.40;;;13.60;1.00;;;;;;6244417;23;20043;-90
2023/07/07 00:22:27;;;;;;;7.43;3.42;;;13.50;1.00;;;;;;6233166;23;20323;-89
2023/07/07 00:25:14;;;;;;;5.10;3.30;;;13.60;1.00;;;;;;6233840;23;20032;-90
2023/07/07 00:28:02;;;;;;;5.18;3.47;;;13.60;1.00;;;;;;6233161;23;20046;-90
2023/07/07 00:30:49;;;;;;;6.47;3.55;;;13.70;1.00;;;;;;6229722;23;20451;-90
2023/07/07 00:33:37;;;;;;;6.75;3.47;;;13.70;1.00;;;;;;6232462;22;20028;-90
2023/07/07 00:36:25;;;;;;;4.93;3.47;;;13.70;1.00;;;;;;6227888;23;20032;-90
2023/07/07 00:39:14;;;;;;;4.60;3.65;;;13.60;1.00;;;;;;6226113;23;20028;-89
2023/07/07 00:42:05;;;;;;;6.55;3.30;;;13.50;9.50;;;;;;6227075;23;20024;-91
2023/07/07 00:45:05;;;;;;;7.18;3.90;;;13.50;12.80;;;;;;6228368;23;20032;-89
2023/07/07 00:48:00;;;;;;;6.72;3.88;;;13.50;8.50;;;;;;6228205;23;20019;-90
2023/07/07 00:50:56;;;;;;;5.70;3.35;;;13.40;13.70;;;;;;6229336;23;20023;-90
2023/07/07 00:53:46;;;;;;;5.80;3.60;;;13.50;19.50;;;;;;6229664;23;20427;-89
2023/07/07 00:56:38;;;;;;;7.35;4.10;;;13.70;17.50;;;;;;6228788;23;20028;-90
2023/07/07 00:59:30;;;;;;;6.85;4.18;;;13.80;16.60;;;;;;6250975;23;20431;-90
2023/07/07 01:02:25;;;;;;;7.97;3.72;;;13.70;18.90;;;;;;6250791;23;20323;-89
2023/07/07 01:05:14;;;;;;;7.43;3.33;;;13.60;20.20;;;;;;6219965;23;20024;-90
2023/07/07 01:08:02;;;;;;;6.05;3.55;;;13.40;25.40;;;;;;6236464;23;20095;-89
2023/07/07 01:10:52;;;;;;;5.28;3.35;;;13.30;33.50;;;;;;6239748;23;20071;-90
2023/07/07 01:13:39;;;;;;;5.35;3.65;;;13.20;50.10;;;;;;6258781;23;20107;-90
2023/07/07 01:17:06;;;;;;;6.63;3.58;;;13.10;54.60;;;;;;6255943;22;20032;-91
2023/07/07 01:20:17;;;;;;;7.45;3.72;;;13.00;86.10;;;;;;6227787;23;20046;-91
2023/07/07 01:23:35;;;;;;;4.38;3.22;;;12.90;94.10;;;;;;6231021;23;20020;-90
2023/07/07 01:26:45;;;;;;;5.03;3.20;;;12.80;99.90;;;;;;6237151;23;20024;-92
2023/07/07 01:30:02;;;;;;;6.45;3.08;;;12.70;99.90;;;;;;6250369;23;20030;-89
2023/07/07 01:32:51;;;;;;;7.18;4.07;;;12.70;99.90;;;;;;6250036;22;20028;-90
2023/07/07 01:35:42;;;;;;;8.77;4.20;;;12.80;99.90;;;;;;6228169;23;20031;-90
2023/07/07 01:38:33;;;;;;;6.78;3.80;;;12.90;99.90;;;;;;6226682;23;20117;-90
2023/07/07 01:41:34;;;;;;;10.00;4.07;;;12.80;99.90;;;;;;6227352;23;20093;-89
2023/07/07 01:44:36;;;;;;;8.05;3.90;;;12.70;99.90;;;;;;6206890;23;20370;-91
2023/07/07 01:47:32;;;;;;;7.00;3.95;;;12.50;99.90;;;;;;6227820;23;20082;-91
2023/07/07 01:50:24;;;;;;;6.50;3.58;;;12.50;99.90;;;;;;6228617;23;20028;-89
2023/07/07 01:53:15;;;;;;;;;;;12.50;99.90;;;;;;6228505;23;20028;-91
2023/07/07 01:56:22;;;;;;;9.52;3.50;;;12.50;99.90;;;;;;6230033;23;20209;-89
2023/07/07 01:59:10;;;;;;;8.38;3.97;;;12.40;99.90;;;;;;6228199;23;20024;-90
2023/07/07 02:02:14;;;;;;;6.20;4.18;;;12.30;99.90;;;;;;6228044;23;20020;-88
2023/07/07 02:05:05;;;;;;;9.93;4.50;;;12.30;99.90;;;;;;6228797;23;20082;-89
2023/07/07 02:07:53;;;;;;;10.18;4.72;;;12.30;99.90;;;;;;6227992;23;20327;-90
2023/07/07 02:10:42;;;;;;;8.07;4.05;;;12.20;99.90;;;;;;6227601;23;20158;-90
2023/07/07 02:13:37;;;;;;;7.85;4.28;;;12.10;99.90;;;;;;6227977;23;20354;-90
2023/07/07 02:16:26;;;;;;;6.03;3.58;;;12.20;99.90;;;;;;6228126;23;20024;-89
2023/07/07 02:19:16;;;;;;;7.93;3.90;;;12.30;99.90;;;;;;6227392;23;20030;-90
2023/07/07 02:22:04;;;;;;;9.20;4.13;;;12.30;99.90;;;;;;6229081;23;20023;-89
2023/07/07 02:24:53;;;;;;;7.97;3.95;;;12.20;99.90;;;;;;6239032;23;20054;-89
2023/07/07 02:27:40;;;;;;;8.00;3.80;;;12.20;99.90;;;;;;6239119;23;20044;-89
2023/07/07 02:30:33;;;;;;;8.07;4.05;;;12.10;99.90;;;;;;6238882;22;20059;-88
2023/07/07 02:33:31;;;;;;;8.27;4.68;;;12.30;99.90;;;;;;6227376;23;20063;-88
2023/07/07 02:36:18;;;;;;;6.35;4.13;;;12.40;99.90;;;;;;6250009;23;20109;-89
2023/07/07 02:39:25;;;;;;;8.75;4.22;;;12.30;99.90;;;;;;6249873;23;20158;-89
2023/07/07 02:42:17;;;;;;;11.05;4.43;;;12.20;99.90;;;;;;6251008;22;20035;-90
2023/07/07 02:45:05;;;;;;;6.50;4.35;;;12.10;99.90;;;;;;6250921;22;20035;-91
2023/07/07 02:47:56;;;;;;;8.85;4.68;;;12.00;99.90;;;;;;6250594;22;20442;-90
2023/07/07 02:51:26;;;;;;;6.68;3.95;;;11.90;99.90;;;;;;6254880;23;20019;-88
2023/07/07 02:54:14;;;;;;;6.88;4.10;;;12.00;99.90;;;;;;6233383;23;20428;-90
2023/07/07 02:57:03;;;;;;;6.22;4.07;;;12.00;99.90;;;;;;6230452;23;20032;-89
2023/07/07 03:00:05;;;;;;;8.88;4.63;;;11.90;99.90;;;;;;6230062;23;20020;-89
2023/07/07 03:02:55;;;;;;;6.93;3.72;;;11.80;99.90;;;;;;6226121;23;20020;-89
2023/07/07 03:05:48;;;;;;;5.13;4.00;;;11.80;99.90;;;;;;6250701;23;20020;-91
2023/07/07 03:08:36;;;;;;;11.32;4.72;;;11.80;99.90;;;;;;6248597;23;20020;-89
2023/07/07 03:11:25;;;;;;;6.88;4.35;;;11.90;99.90;;;;;;6227251;23;20039;-91
2023/07/07 03:14:16;;;;;;;8.80;5.00;;;11.90;99.90;;;;;;6248465;23;20055;-89
2023/07/07 03:17:05;;;;;;;6.00;4.35;;;11.90;99.90;;;;;;6248879;23;20090;-90
2023/07/07 03:19:53;;;;;;;9.77;5.35;;;11.90;99.90;;;;;;6227793;23;20515;-90
2023/07/07 03:22:41;;;;;;;6.97;4.20;;;11.80;99.90;;;;;;6228516;23;20496;-90
2023/07/07 03:25:32;;;;;;;9.57;4.47;;;11.80;99.90;;;;;;6251918;22;20046;-89
2023/07/07 03:28:22;;;;;;;8.13;4.57;;;11.80;99.90;;;;;;6232013;23;20020;-88
2023/07/07 03:31:23;;;;;;;7.03;4.25;;;11.70;99.90;;;;;;6249030;23;20027;-88
2023/07/07 03:34:11;;;;;;;7.72;4.63;;;11.70;99.90;;;;;;6226477;23;20031;-91
2023/07/07 03:37:00;;;;;;;10.48;5.22;;;11.70;99.90;;;;;;6250073;22;20090;-91
2023/07/07 03:39:50;;;;;;;6.85;4.65;;;11.60;99.90;;;;;;6249661;22;20038;-90
2023/07/07 03:42:40;;;;;;;9.77;5.03;;;11.60;99.90;;;;;;6226474;23;20118;-90
2023/07/07 03:45:34;;;;;;;7.63;4.55;;;11.50;99.90;;;;;;6228836;22;20035;-89
2023/07/07 03:48:33;;;;;;;12.93;4.57;;;11.60;99.90;;;;;;6249454;23;20082;-90
2023/07/07 03:51:46;;;;;;;8.93;4.60;;;11.60;99.90;;;;;;6226478;23;20024;-89
2023/07/07 03:54:35;;;;;;;7.95;4.68;;;11.70;99.90;;;;;;6247833;23;20058;-90
2023/07/07 03:57:25;;;;;;;8.80;5.03;;;11.60;99.90;;;;;;6224349;23;20030;-90
2023/07/07 04:00:37;;;;;;;11.82;5.10;;;11.60;99.90;;;;;;6227605;23;20031;-90
2023/07/07 04:03:53;;;;;;;6.85;4.80;;;11.50;99.90;;;;;;6228491;23;20098;-91
2023/07/07 04:06:44;;;;;;;8.43;4.72;;;11.50;99.90;;;;;;6225786;23;20020;-91
2023/07/07 04:09:31;;;;;;;11.73;5.20;;;11.60;99.90;;;;;;6228275;22;20110;-89
2023/07/07 04:12:22;;;;;;;9.65;4.60;;;11.80;99.90;;;;;;6194375;23;20038;-93
2023/07/07 04:15:09;;;;;;;8.15;4.63;;;11.90;99.90;;;;;;6194917;23;20025;-91
2023/07/07 04:17:57;;;;;;;6.72;4.60;;;11.90;99.90;;;;;;6199899;23;20024;-91
2023/07/07 04:20:44;;;;;;;7.35;4.90;;;12.10;99.90;;;;;;6197753;23;20028;-90
2023/07/07 04:23:34;;;;;;;7.38;4.30;;;12.20;99.90;;;;;;6196999;23;20025;-90
2023/07/07 04:26:22;;;;;;;9.25;5.15;;;12.30;99.90;;;;;;6197133;23;20427;-90
2023/07/07 04:29:09;;;;;;;7.88;4.75;;;12.40;99.90;;;;;;6195660;23;20024;-90
2023/07/07 04:31:59;;;;;;;8.57;5.03;;;12.30;99.90;;;;;;6196081;23;20057;-91
2023/07/07 04:34:48;;;;;;;12.40;4.88;;;12.40;99.90;;;;;;6197716;23;20331;-91
2023/07/07 04:37:38;;;;;;;7.45;4.65;;;12.40;99.90;;;;;;6198036;23;20044;-90
2023/07/07 04:40:25;;;;;;;9.65;5.53;;;12.40;99.90;;;;;;6196493;23;20323;-91
2023/07/07 04:43:13;;;;;;;6.25;5.05;;;12.40;99.90;;;;;;6217865;23;20020;-90
2023/07/07 04:46:01;;;;;;;9.75;5.32;;;12.50;99.90;;;;;;6196640;23;20032;-91
2023/07/07 04:48:49;;;;;;;9.98;5.03;;;12.60;99.90;;;;;;6195993;23;20039;-91
2023/07/07 04:51:41;;;;;;;8.75;4.97;;;12.70;99.90;;;;;;6200065;23;20012;-87
2023/07/07 04:54:28;;;;;;;13.23;6.00;;;12.70;99.90;;;;;;6224424;23;20375;-86
2023/07/07 04:57:15;;;;;;;9.35;5.40;;;12.80;99.90;;;;;;6220783;23;20036;-86
2023/07/07 05:00:08;;;;;;;7.63;4.63;;;13.00;99.90;;;;;;6220748;23;20567;-85
2023/07/07 05:02:55;;;;;;;8.57;5.13;;;13.10;99.90;;;;;;6218983;23;20025;-87
2023/07/07 05:05:42;;;;;;;8.98;5.18;;;13.20;99.90;;;;;;6218982;23;20025;-88
2023/07/07 05:08:33;;;;;;;9.73;5.60;;;13.30;99.90;;;;;;6220206;23;20052;-86
2023/07/07 05:11:24;;;;;;;12.43;5.15;;;13.50;99.90;;;;;;6227494;23;20035;-87
2023/07/07 05:14:11;;;;;;;10.23;5.07;;;13.50;99.90;;;;;;6254958;23;20024;-86
2023/07/07 05:16:58;;;;;;;9.68;5.05;;;13.60;99.90;;;;;;6251133;22;20032;-86
2023/07/07 05:19:45;;;;;;;10.73;5.10;;;13.70;99.90;;;;;;6252910;22;20111;-87
2023/07/07 05:22:33;;;;;;;9.77;4.60;;;13.80;99.90;;;;;;6248408;23;20067;-86
2023/07/07 05:25:21;;;;;;;9.52;4.60;;;13.90;99.90;;;;;;6227723;23;20071;-87
2023/07/07 05:28:08;;;;;;;7.25;4.28;;;14.10;99.90;;;;;;6248409;23;20035;-85
2023/07/07 05:30:58;;;;;;;8.15;4.00;;;14.30;99.90;;;;;;6225094;23;20024;-85
2023/07/07 05:33:46;;;;;;;7.68;4.32;;;14.40;99.90;;;;;;6246983;23;20027;-88
2023/07/07 05:36:33;;;;;;;6.57;4.60;;;14.50;99.90;;;;;;6254415;23;20051;-87
2023/07/07 05:39:21;;;;;;;6.72;4.53;;;14.70;99.90;;;;;;6227847;23;20460;-87
2023/07/07 05:42:13;;;;;;;10.45;4.40;;;14.80;99.90;;;;;;6225953;23;20058;-87
2023/07/07 05:45:02;;;;;;;8.97;4.73;;;14.90;99.90;;;;;;6226304;23;20020;-88
2023/07/07 05:47:49;;;;;;;9.40;5.13;;;14.90;99.90;;;;;;6251031;22;20231;-88
2023/07/07 05:50:40;;;;;;;9.02;4.43;;;15.00;99.90;;;;;;6248581;23;20360;-87
2023/07/07 05:53:28;;;;;;;9.80;4.60;;;15.10;99.90;;;;;;6229237;22;20031;-88
2023/07/07 05:56:23;;;;;;;7.53;4.53;;;15.30;99.90;;;;;;6248295;23;20379;-87
2023/07/07 05:59:11;;;;;;;9.07;4.40;;;15.50;99.90;;;;;;6247315;23;20039;-88
2023/07/07 06:01:58;;;;;;;12.20;4.97;;;15.80;99.90;;;;;;6227429;23;20527;-87
2023/07/07 06:04:46;;;;;;;7.88;4.45;;;16.00;99.60;;;;;;6252134;23;20035;-88
2023/07/07 06:07:34;;;;;;;7.05;4.07;;;16.20;98.10;;;;;;6248111;23;20024;-88
2023/07/07 06:10:27;;;;;;;9.50;5.80;;;16.40;85.20;;;;;;6225476;23;20062;-86
2023/07/07 06:13:17;;;;;;;10.43;4.85;;;16.60;59.80;;;;;;6228650;23;20115;-87
2023/07/07 06:16:05;;;;;;;10.77;4.38;;;16.70;44.00;;;;;;6228404;23;20024;-86
2023/07/07 06:18:53;;;;;;;8.43;4.40;;;16.80;24.80;;;;;;6249792;23;20020;-87
2023/07/07 06:21:40;;;;;;;6.05;3.97;;;16.90;20.00;;;;;;6249259;23;20038;-89
2023/07/07 06:24:28;;;;;;;12.23;4.28;;;17.10;17.10;;;;;;6248042;23;20076;-89
2023/07/07 06:27:16;;;;;;;9.25;4.45;;;17.20;7.00;;;;;;6250777;22;20119;-87
2023/07/07 06:30:03;;;;;;;7.93;4.35;;;17.40;3.40;;;;;;6251594;22;20419;-85
2023/07/07 06:32:51;;;;;;;7.22;3.92;;;17.60;1.00;;;;;;6250921;22;20091;-86
2023/07/07 06:35:38;;;;;;;9.23;4.32;;;17.80;1.00;;;;;;6248227;23;20039;-86
2023/07/07 06:38:25;;;;;;;9.95;4.70;;;18.00;1.00;;;;;;6227335;23;20024;-87
2023/07/07 06:41:15;;;;;;;8.80;4.30;;;18.20;1.00;;;;;;6231356;23;20080;-87
2023/07/07 06:44:02;;;;;;;10.27;4.13;;;18.40;1.00;;;;;;6260780;22;20413;-87
2023/07/07 06:46:54;;;;;;;14.60;4.95;;;18.60;1.00;;;;;;6252975;23;20020;-88
2023/07/07 06:49:41;;;;;;;6.37;4.30;;;19.00;1.00;;;;;;6250986;23;20035;-88
2023/07/07 06:52:31;;;;;;;10.73;4.80;;;19.20;1.00;;;;;;6251735;23;21102;-86
2023/07/07 06:55:21;;;;;;;8.63;4.93;;;19.40;1.00;;;;;;6228244;23;20086;-89
2023/07/07 06:58:11;;;;;;;6.40;4.57;;;19.50;1.00;;;;;;6242524;23;20016;-87
2023/07/07 07:01:01;;;;;;;7.57;4.20;;;19.70;1.00;;;;;;6261665;23;20249;-88
2023/07/07 07:03:49;;;;;;;8.35;4.38;;;20.10;1.00;;;;;;6264236;23;20036;-83
2023/07/07 07:06:41;;;;;;;10.85;4.35;;;20.40;1.00;;;;;;6271245;22;20754;-84
2023/07/07 07:09:31;;;;;;;4.57;3.90;;;20.60;1.00;;;;;;6273249;22;20202;-88
2023/07/07 07:12:18;;;;;;;7.60;4.22;;;20.90;1.00;;;;;;6271677;23;20068;-87
2023/07/07 07:15:07;;;;;;;10.02;4.28;;;21.10;1.00;;;;;;6269343;23;20044;-88
2023/07/07 07:17:55;;;;;;;5.85;4.03;;;21.70;1.00;;;;;;6242367;23;20375;-87
2023/07/07 07:20:42;;;;;;;5.80;4.28;;;22.20;1.00;;;;;;6256201;23;20487;-86
2023/07/07 07:23:29;;;;;;;11.40;4.72;;;22.60;1.00;;;;;;6253964;23;20032;-86
2023/07/07 07:26:18;;;;;;;7.63;4.30;;;22.90;1.00;;;;;;6225494;23;20038;-87
2023/07/07 07:29:05;;;;;;;6.70;4.13;;;23.40;1.00;;;;;;6247265;23;20020;-88
2023/07/07 07:31:53;;;;;;;5.95;4.22;;;23.70;1.00;;;;;;6247227;23;20020;-88
2023/07/07 07:34:40;;;;;;;8.93;4.10;;;24.30;1.00;;;;;;6248774;22;20028;-88
2023/07/07 07:37:27;;;;;;;6.63;3.78;;;24.90;1.00;;;;;;6225628;23;20024;-89
2023/07/07 07:40:15;;;;;;;5.43;4.13;;;25.20;1.00;;;;;;6225497;23;20039;-87
2023/07/07 07:43:05;;;;;;;4.85;3.67;;;25.10;1.00;;;;;;6226824;23;20028;-88
2023/07/07 07:45:55;;;;;;;7.30;4.00;;;25.50;1.00;;;;;;6249215;22;20035;-89
2023/07/07 07:48:45;;;;;;;5.22;3.95;;;25.80;1.00;;;;;;6227454;23;20095;-87
2023/07/07 07:51:32;;;;;;;5.57;3.97;;;26.30;1.00;;;;;;6248860;23;20035;-88
2023/07/07 07:54:24;;;;;;;8.68;4.43;;;26.80;1.00;;;;;;6251243;23;20055;-87
2023/07/07 07:57:16;;;;;;;9.43;4.00;;;27.10;1.00;;;;;;6253333;23;20081;-87
2023/07/07 08:00:06;;;;;;;7.28;4.03;;;26.80;1.00;;;;;;6250569;22;20028;-88
2023/07/07 08:02:54;;;;;;;5.57;3.75;;;27.00;1.00;;;;;;6249030;23;20024;-88
2023/07/07 08:05:41;;;;;;;7.07;4.10;;;27.90;1.00;;;;;;6230931;23;20034;-89
2023/07/07 08:08:31;;;;;;;5.57;3.70;;;28.60;1.00;;;;;;6251449;23;20028;-89
2023/07/07 08:11:29;;;;;;;6.07;4.30;;;29.20;1.00;;;;;;6226770;23;20423;-88
2023/07/07 08:14:19;;;;;;;5.82;4.00;;;29.30;1.00;;;;;;6200482;23;20029;-88
2023/07/07 08:17:11;;;;;;;6.07;3.95;;;29.70;1.00;;;;;;6219389;23;20059;-87
2023/07/07 08:19:59;;;;;;;6.78;3.95;;;30.10;1.00;;;;;;6220147;23;20222;-87
2023/07/07 08:22:46;;;;;;;5.45;4.07;;;30.00;1.00;;;;;;6220468;23;20055;-89
2023/07/07 08:25:35;;;;;;;5.07;4.10;;;30.10;1.00;;;;;;6199985;23;20050;-89
2023/07/07 08:28:22;;;;;;;5.97;4.13;;;30.30;1.00;;;;;;6220779;23;20020;-90
2023/07/07 08:31:10;;;;;;;5.00;4.10;;;30.40;1.00;;;;;;6199765;23;20429;-86
2023/07/07 08:33:57;;;;;;;9.50;4.22;;;30.70;1.00;;;;;;6197976;23;20487;-88
2023/07/07 08:36:48;;;;;;;7.25;4.43;;;31.20;1.00;;;;;;6217634;23;20029;-88
2023/07/07 08:39:37;;;;;;;8.32;4.93;;;31.30;1.00;;;;;;6214255;23;20025;-87
2023/07/07 08:42:35;;;;;;;5.38;4.70;;;31.60;1.00;;;;;;6192951;23;20074;-90
2023/07/07 08:45:23;;;;;;;6.75;4.80;;;31.50;1.00;;;;;;6194324;23;20067;-89
2023/07/07 08:48:32;;;;;;;6.28;4.60;;;30.00;1.00;;;;;;6213841;23;20021;-89
2023/07/07 08:51:26;;;;;;;5.90;4.60;;;29.30;1.00;;;;;;6213354;23;20029;-89
2023/07/07 08:54:33;;;;;;;6.07;4.88;;;29.80;1.00;;;;;;6214432;23;20036;-92
2023/07/07 08:57:30;;;;;;;6.07;4.60;;;30.40;1.00;;;;;;6212482;23;20434;-90
2023/07/07 09:00:27;;;;;;;9.77;5.50;;;30.50;1.00;;;;;;6192965;23;20063;-90
2023/07/07 09:03:23;;;;;;;7.72;4.82;;;30.20;1.00;;;;;;6212029;23;20127;-90
2023/07/07 09:06:40;;;;;;;6.40;5.07;;;30.00;1.00;;;;;;6217128;23;20039;-88
2023/07/07 09:09:46;;;;;;;9.55;5.47;;;30.30;1.00;;;;;;6208982;23;20024;-88
2023/07/07 09:12:43;;;;;;;7.88;5.25;;;30.40;1.00;;;;;;6198774;23;20408;-87
2023/07/07 09:15:36;;;;;;;8.27;5.32;;;31.40;1.00;;;;;;6219380;23;20436;-87
2023/07/07 09:18:36;;;;;;;8.55;5.38;;;32.00;1.00;;;;;;6194963;23;20036;-88
2023/07/07 09:21:45;;;;;;;8.32;5.40;;;31.90;1.00;;;;;;6216169;23;20120;-86
2023/07/07 09:24:45;;;;;;;9.45;5.82;;;32.20;1.00;;;;;;6199352;23;20460;-85
2023/07/07 09:27:42;;;;;;;7.77;6.37;;;32.40;1.00;;;;;;6194938;23;20052;-87
2023/07/07 09:30:40;;;;;;;8.38;5.63;;;32.40;1.00;;;;;;6199333;23;20032;-88
2023/07/07 09:33:28;;;;;;;8.52;5.63;;;32.00;1.00;;;;;;6197215;23;20029;-90
2023/07/07 09:36:23;;;;;;;11.63;6.03;;;32.20;1.00;;;;;;6221784;23;20035;-86
2023/07/07 09:39:40;;;;;;;8.90;5.47;;;32.30;1.00;;;;;;6219049;23;20385;-88
2023/07/07 09:42:38;;;;;;;9.70;6.28;;;32.40;1.00;;;;;;6202170;23;20035;-88
2023/07/07 09:45:34;;;;;;;10.90;6.50;;;31.50;1.00;;;;;;6224503;23;20110;-87
2023/07/07 09:48:40;;;;;;;8.70;6.57;;;31.60;1.00;;;;;;6201526;23;20024;-90
2023/07/07 09:52:00;;;;;;;7.55;5.95;;;30.70;1.00;;;;;;6220216;23;20027;-88
2023/07/07 09:54:49;;;;;;;8.10;5.85;;;31.40;1.00;;;;;;6219322;23;20031;-87
2023/07/07 09:57:41;;;;;;;10.30;6.40;;;32.20;1.00;;;;;;6217679;23;20050;-88
2023/07/07 10:00:32;;;;;;;10.45;6.50;;;33.20;1.00;;;;;;6214526;23;20028;-85
2023/07/07 10:03:33;;;;;;;;;;;33.60;1.00;;;;;;6214187;23;20043;-88
2023/07/07 10:06:48;;;;;;;8.70;6.55;;;33.90;1.00;;;;;;6217415;23;19943;-89
2023/07/07 10:09:37;;;;;;;9.77;7.47;;;34.20;1.00;;;;;;6219344;23;20044;-88
2023/07/07 10:12:25;;;;;;;7.53;6.28;;;34.00;99.90;;;;;;6214930;23;20024;-88
2023/07/07 10:15:45;;;;;;;10.98;7.07;;;34.20;99.90;;;;;;6214274;23;20592;-87
2023/07/07 10:18:33;;;;;;;;;;;34.30;99.90;;;;;;6215559;23;20040;-91
2023/07/07 10:21:32;;;;;;;8.75;6.70;;;34.70;99.90;;;;;;6215699;23;19989;-86
2023/07/07 10:24:19;;;;;;;8.80;6.45;;;35.50;99.90;;;;;;6195069;23;20308;-87
2023/07/07 10:27:12;;;;;;;8.85;6.95;;;35.60;99.90;;;;;;6212384;23;20080;-86
2023/07/07 10:30:03;;;;;;;11.02;7.60;;;35.50;99.90;;;;;;6215103;23;20024;-87
2023/07/07 10:32:54;;;;;;;9.38;7.00;;;34.80;99.90;;;;;;6218099;23;20032;-88
2023/07/07 10:35:41;;;;;;;11.57;7.38;;;34.70;99.90;;;;;;6219719;23;20091;-90
2023/07/07 10:38:31;;;;;;;9.43;7.47;;;33.70;99.90;;;;;;6217220;23;20060;-87
2023/07/07 10:41:34;;;;;;;9.25;7.10;;;33.60;99.90;;;;;;6223246;23;20069;-89
2023/07/07 10:44:25;;;;;;;7.72;6.85;;;33.80;99.90;;;;;;6214479;23;20039;-87
2023/07/07 10:47:17;;;;;;;11.40;6.93;;;35.10;99.90;;;;;;6216832;23;20076;-90
2023/07/07 10:50:15;;;;;;;8.57;7.32;;;34.70;99.90;;;;;;6195376;23;20103;-86
2023/07/07 10:53:08;;;;;;;8.70;7.30;;;34.00;99.90;;;;;;6214065;23;20094;-88
2023/07/07 10:56:25;;;;;;;9.32;7.45;;;34.10;99.90;;;;;;6193141;23;20104;-88
2023/07/07 10:59:21;;;;;;;10.57;7.70;;;33.10;99.90;;;;;;6214175;23;20102;-86
2023/07/07 11:02:24;;;;;;;10.43;6.75;;;33.40;99.90;;;;;;6195321;23;20191;-88
2023/07/07 11:05:26;;;;;;;9.25;7.07;;;34.50;99.90;;;;;;6213827;23;20284;-89
2023/07/07 11:08:47;;;;;;;9.40;6.60;;;35.30;99.90;;;;;;6215084;23;20107;-87
2023/07/07 11:11:44;;;;;;;10.48;6.68;;;34.70;99.90;;;;;;6220469;23;20059;-92
2023/07/07 11:14:45;;;;;;;9.07;6.88;;;33.80;99.90;;;;;;6196330;23;20028;-88
2023/07/07 11:17:59;;;;;;;12.23;7.85;;;33.80;99.90;;;;;;6219925;23;20100;-87
2023/07/07 11:21:07;;;;;;;10.00;7.70;;;34.50;99.90;;;;;;6195891;23;20063;-90
2023/07/07 11:23:57;;;;;;;11.10;8.00;;;35.40;99.90;;;;;;6198090;23;20035;-91
2023/07/07 11:27:01;;;;;;;10.38;8.13;;;34.30;99.90;;;;;;6217652;23;20084;-89
2023/07/07 11:30:03;;;;;;;11.07;7.68;;;34.30;99.90;;;;;;6218601;23;20080;-88
2023/07/07 11:33:04;;;;;;;12.13;8.32;;;35.20;99.90;;;;;;6213543;23;20036;-88
2023/07/07 11:35:54;;;;;;;11.32;7.93;;;36.10;99.90;;;;;;6215476;23;20438;-89
2023/07/07 11:39:01;;;;;;;11.55;7.72;;;36.00;99.90;;;;;;6213308;23;20043;-87
2023/07/07 11:42:15;;;;;;;10.43;7.88;;;36.40;99.90;;;;;;6213937;23;20428;-85
2023/07/07 11:45:28;;;;;;;8.38;7.35;;;37.00;99.90;;;;;;6213966;23;20431;-88
2023/07/07 11:48:30;;;;;;;11.88;8.32;;;37.80;99.90;;;;;;6216332;23;20100;-89
2023/07/07 11:51:41;;;;;;;10.63;7.55;;;37.90;99.90;;;;;;6192410;23;20024;-86
2023/07/07 11:54:49;;;;;;;12.37;8.23;;;38.50;99.90;;;;;;6192009;23;20048;-86
2023/07/07 11:58:10;;;;;;;10.60;8.07;;;36.20;99.90;;;;;;6213542;23;20239;-87
2023/07/07 12:01:15;;;;;;;10.13;7.57;;;35.90;99.90;;;;;;6192513;23;20025;-87
2023/07/07 12:04:13;;;;;;;10.82;8.40;;;36.70;99.90;;;;;;6193691;23;20099;-87
2023/07/07 12:07:15;;;;;;;9.98;7.15;;;36.20;99.90;;;;;;6213671;23;20040;-87
2023/07/07 12:10:16;;;;;;;10.60;7.88;;;35.30;99.90;;;;;;6192600;23;20078;-87
2023/07/07 12:13:12;;;;;;;10.57;7.20;;;34.80;99.90;;;;;;6193831;23;20114;-86
2023/07/07 12:16:05;;;;;;;10.25;7.43;;;34.50;99.90;;;;;;6216766;23;20107;-85
2023/07/07 12:19:03;;;;;;;9.80;7.10;;;34.80;99.90;;;;;;6194849;23;20025;-86
2023/07/07 12:21:55;;;;;;;8.65;6.72;;;34.00;99.90;;;;;;6193165;23;20028;-89
2023/07/07 12:24:53;;;;;;;8.98;7.05;;;34.10;99.90;;;;;;6190924;23;20035;-86
2023/07/07 12:27:45;;;;;;;11.38;7.55;;;34.30;99.90;;;;;;6213987;23;20040;-88
2023/07/07 12:30:41;;;;;;;10.95;7.32;;;34.20;99.90;;;;;;6191849;23;20029;-85
2023/07/07 12:33:40;;;;;;;10.25;7.10;;;35.70;99.90;;;;;;6214050;23;20024;-88
2023/07/07 12:36:29;;;;;;;8.18;6.70;;;36.60;99.90;;;;;;6212761;23;20032;-87
2023/07/07 12:39:19;;;;;;;10.27;7.47;;;37.80;99.90;;;;;;6213658;23;20096;-87
2023/07/07 12:42:14;;;;;;;11.23;7.00;;;38.70;99.90;;;;;;6214968;23;20021;-87
2023/07/07 12:45:09;;;;;;;10.57;7.15;;;38.90;99.90;;;;;;6214702;23;20032;-89
2023/07/07 12:48:14;;;;;;;11.75;7.00;;;39.20;99.90;;;;;;6218059;23;20056;-89
2023/07/07 12:51:08;;;;;;;9.68;7.03;;;39.00;99.90;;;;;;6212179;23;20036;-87
2023/07/07 12:53:58;;;;;;;8.45;6.18;;;39.30;99.90;;;;;;6212886;23;20035;-87
2023/07/07 12:57:27;;;;;;;9.30;6.55;;;39.30;99.90;;;;;;6215992;23;20039;-89
2023/07/07 13:00:32;;;;;;;9.25;6.35;;;39.30;99.90;;;;;;6097762;23;20035;-88
2023/07/07 13:03:20;;;;;;;9.50;6.45;;;38.80;99.90;;;;;;6197274;23;20047;-88
2023/07/07 13:06:30;;;;;;;7.75;6.13;;;39.10;99.90;;;;;;6220609;23;20079;-93
2023/07/07 13:09:24;;;;;;;10.93;6.18;;;39.30;99.90;;;;;;6228918;23;20028;-90
2023/07/07 13:12:40;;;;;;;10.10;6.25;;;39.50;99.90;;;;;;6204298;23;20024;-90
2023/07/07 13:15:35;;;;;;;9.20;6.95;;;37.00;99.90;;;;;;6208454;23;20044;-93
2023/07/07 13:18:26;;;;;;;12.15;6.68;;;36.00;99.90;;;;;;6204333;23;20187;-93
2023/07/07 13:21:37;;;;;;;9.93;6.32;;;36.40;99.90;;;;;;6197753;23;20024;-90
2023/07/07 13:24:58;;;;;;;9.13;6.43;;;36.50;99.90;;;;;;6199608;23;20033;-90
2023/07/07 13:28:09;;;;;;;10.13;7.05;;;36.20;99.90;;;;;;6176632;23;20033;-90
2023/07/07 13:31:02;;;;;;;8.85;6.57;;;36.20;99.90;;;;;;6220042;23;20029;-90
2023/07/07 13:34:33;;;;;;;7.82;5.55;;;36.60;99.90;;;;;;6221630;23;20032;-90
2023/07/07 13:37:41;;;;;;;13.00;6.53;;;37.70;99.90;;;;;;6218959;23;20029;-92
2023/07/07 13:40:41;;;;;;;9.45;6.22;;;37.70;99.90;;;;;;6199514;23;20112;-89
2023/07/07 13:43:36;;;;;;;7.10;5.25;;;37.60;99.90;;;;;;6196837;23;20039;-90
2023/07/07 13:46:30;;;;;;;7.75;5.55;;;37.50;99.90;;;;;;6218692;23;20024;-88
2023/07/07 13:53:47;;;;;;;9.05;5.50;;;38.10;99.90;;;;;;6217525;23;20404;-90
2023/07/07 13:57:10;;;;;;;10.07;5.68;;;38.90;99.90;;;;;;5942057;24;20099;-86
2023/07/07 14:00:00;;;;;;;10.45;5.90;;;39.40;99.90;;;;;;5941104;23;20457;-87
2023/07/07 14:02:49;;;;;;;8.20;5.75;;;39.40;99.90;;;;;;6147757;23;20768;-87
2023/07/07 14:05:38;;;;;;;10.45;5.38;;;38.60;99.90;;;;;;6218996;23;20035;-88
2023/07/07 14:08:27;;;;;;;6.88;5.28;;;39.00;99.90;;;;;;6197767;23;20095;-91
2023/07/07 14:11:26;;;;;;;7.10;5.15;;;38.70;99.90;;;;;;6233622;23;20039;-90
2023/07/07 14:14:27;;;;;;;9.77;5.85;;;38.30;99.90;;;;;;6216193;23;20021;-90
2023/07/07 14:17:29;;;;;;;9.77;6.13;;;37.50;99.90;;;;;;6201547;23;20075;-91
2023/07/07 14:20:22;;;;;;;9.50;5.55;;;37.60;99.90;;;;;;6217161;23;20025;-87
2023/07/07 14:23:12;;;;;;;8.77;5.43;;;37.70;99.90;;;;;;6217613;23;20438;-86
2023/07/07 14:26:00;;;;;;;8.10;5.05;;;37.60;99.90;;;;;;6194193;23;20030;-88
2023/07/07 14:28:48;;;;;;;8.93;5.10;;;38.80;99.90;;;;;;6195226;23;20183;-91
2023/07/07 14:31:38;;;;;;;6.93;5.55;;;39.50;99.90;;;;;;6194738;23;20100;-90
2023/07/07 14:34:28;;;;;;;7.25;5.05;;;39.10;99.90;;;;;;6218900;23;20031;-92
2023/07/07 14:37:38;;;;;;;8.80;5.03;;;39.50;99.90;;;;;;6200781;23;20020;-90
2023/07/07 14:40:30;;;;;;;7.43;5.25;;;39.10;99.90;;;;;;6196343;23;20025;-91
2023/07/07 14:43:54;;;;;;;6.22;4.75;;;39.10;99.90;;;;;;6217886;23;20054;-90
2023/07/07 14:46:44;;;;;;;6.90;4.90;;;38.80;99.90;;;;;;6186375;23;20028;-88
2023/07/07 14:49:39;;;;;;;7.72;5.47;;;39.00;99.90;;;;;;6216973;23;20096;-87
2023/07/07 14:52:30;;;;;;;9.45;5.53;;;37.40;99.90;;;;;;6216384;23;20086;-90
2023/07/07 14:59:47;;;;;;;;;;;;;;;;;;;;;
2023/07/07 15:03:26;;;;;;;6.25;4.85;;;39.00;99.90;;;;;;6202914;23;20072;-91
2023/07/07 15:06:46;;;;;;;8.35;5.20;;;38.10;99.90;;;;;;6219197;23;20103;-91
2023/07/07 15:09:44;;;;;;;9.10;5.70;;;38.20;99.90;;;;;;6216066;23;20028;-88
2023/07/07 15:12:32;;;;;;;7.10;4.82;;;38.30;99.90;;;;;;6211998;23;20079;-91
2023/07/07 15:15:24;;;;;;;7.70;5.20;;;38.20;99.90;;;;;;6222691;23;20078;-89
2023/07/07 15:18:14;;;;;;;7.40;5.38;;;38.90;99.90;;;;;;6220326;23;20044;-90
2023/07/07 15:21:08;;;;;;;8.25;5.78;;;38.50;99.90;;;;;;6233521;23;20022;-88
2023/07/07 15:24:09;;;;;;;7.75;5.80;;;38.10;99.90;;;;;;6228750;23;20028;-86